createdAt,value
2022-10-07T00:00:54.929Z,7.97
2022-10-07T00:03:23.521Z,7.92
2022-10-07T00:06:21.197Z,7.90
2022-10-07T00:08:50.466Z,7.84
2022-10-07T00:11:21.532Z,7.84
2022-10-07T00:13:50.605Z,7.86
2022-10-07T00:16:21.200Z,7.87
2022-10-07T00:18:51.803Z,7.83
2022-10-07T00:21:19.986Z,7.79
2022-10-07T00:23:48.009Z,7.79
2022-10-07T00:26:18.833Z,7.84
2022-10-07T00:28:46.618Z,7.82
2022-10-07T00:31:16.790Z,7.86
2022-10-07T00:33:44.346Z,7.90
2022-10-07T00:36:16.362Z,7.91
2022-10-07T00:38:43.684Z,7.88
2022-10-07T00:41:18.815Z,7.88
2022-10-07T00:43:46.264Z,7.87
2022-10-07T00:46:29.454Z,7.87
2022-10-07T00:48:59.916Z,7.87
2022-10-07T00:51:27.179Z,7.86
2022-10-07T00:53:56.067Z,7.87
2022-10-07T00:56:25.988Z,7.82
2022-10-07T00:58:53.419Z,7.74
2022-10-07T01:01:21.311Z,7.76
2022-10-07T01:03:49.275Z,7.70
2022-10-07T01:06:17.894Z,7.66
2022-10-07T01:08:46.737Z,7.63
2022-10-07T01:11:28.741Z,7.61
2022-10-07T01:14:24.422Z,7.53
2022-10-07T01:16:57.270Z,7.49
2022-10-07T01:19:26.987Z,7.49
2022-10-07T01:22:05.125Z,7.48
2022-10-07T01:24:43.162Z,7.44
2022-10-07T01:27:18.692Z,7.36
2022-10-07T01:29:56.202Z,7.27
2022-10-07T01:32:32.657Z,7.32
2022-10-07T01:35:06.026Z,7.32
2022-10-07T01:37:41.062Z,7.29
2022-10-07T01:40:17.104Z,7.28
2022-10-07T01:42:46.034Z,7.25
2022-10-07T01:45:21.341Z,7.26
2022-10-07T01:47:49.441Z,7.27
2022-10-07T01:50:20.842Z,7.21
2022-10-07T01:52:50.581Z,7.25
2022-10-07T01:55:42.157Z,7.13
2022-10-07T01:58:33.357Z,7.25
2022-10-07T02:01:08.744Z,7.19
2022-10-07T02:03:54.787Z,7.15
2022-10-07T02:06:58.705Z,7.12
2022-10-07T02:09:41.046Z,7.09
2022-10-07T02:12:22.914Z,7.03
2022-10-07T02:14:59.358Z,6.98
2022-10-07T02:17:31.484Z,6.90
2022-10-07T02:20:01.666Z,6.96
2022-10-07T02:22:29.456Z,6.92
2022-10-07T02:25:00.334Z,6.89
2022-10-07T02:27:37.418Z,6.94
2022-10-07T02:30:15.254Z,6.91
2022-10-07T02:32:55.239Z,6.87
2022-10-07T02:35:51.274Z,6.89
2022-10-07T02:38:19.114Z,6.82
2022-10-07T02:41:14.930Z,6.72
2022-10-07T02:43:50.724Z,6.73
2022-10-07T02:46:29.924Z,6.67
2022-10-07T02:49:06.628Z,6.62
2022-10-07T02:51:39.827Z,6.55
2022-10-07T02:54:06.705Z,6.52
2022-10-07T02:56:38.420Z,6.48
2022-10-07T02:59:08.855Z,6.43
2022-10-07T03:01:42.257Z,6.51
2022-10-07T03:04:09.987Z,6.47
2022-10-07T03:06:37.525Z,6.42
2022-10-07T03:09:05.082Z,6.42
2022-10-07T03:11:32.407Z,6.40
2022-10-07T03:13:59.392Z,6.42
2022-10-07T03:16:26.472Z,6.43
2022-10-07T03:18:54.361Z,6.41
2022-10-07T03:21:26.369Z,6.37
2022-10-07T03:23:55.507Z,6.34
2022-10-07T03:26:26.504Z,6.38
2022-10-07T03:28:54.372Z,6.39
2022-10-07T03:31:21.747Z,6.40
2022-10-07T03:33:51.134Z,6.39
2022-10-07T03:36:19.952Z,6.28
2022-10-07T03:38:47.931Z,6.32
2022-10-07T03:41:15.990Z,6.32
2022-10-07T03:43:45.490Z,6.30
2022-10-07T03:46:17.501Z,6.20
2022-10-07T03:48:44.502Z,6.21
2022-10-07T03:51:11.517Z,6.23
2022-10-07T03:53:40.716Z,6.24
2022-10-07T03:56:08.470Z,6.19
2022-10-07T03:58:39.736Z,6.20
2022-10-07T04:01:17.575Z,6.18
2022-10-07T04:03:49.328Z,6.17
2022-10-07T04:06:16.683Z,6.21
2022-10-07T04:08:44.992Z,6.21
2022-10-07T04:11:13.133Z,6.24
2022-10-07T04:13:42.837Z,6.18
2022-10-07T04:16:10.950Z,6.15
2022-10-07T04:18:38.438Z,6.16
2022-10-07T04:21:06.074Z,6.11
2022-10-07T04:23:35.353Z,6.06
2022-10-07T04:26:06.799Z,6.08
2022-10-07T04:28:33.798Z,6.10
2022-10-07T04:31:10.029Z,6.09
2022-10-07T04:33:41.827Z,6.10
2022-10-07T04:36:12.265Z,6.13
2022-10-07T04:38:50.537Z,6.17
2022-10-07T04:41:21.175Z,6.13
2022-10-07T04:43:56.630Z,6.09
2022-10-07T04:46:25.746Z,6.15
2022-10-07T04:49:00.598Z,6.14
2022-10-07T04:51:30.061Z,6.19
2022-10-07T04:53:59.105Z,6.28
2022-10-07T04:56:32.112Z,6.28
2022-10-07T04:59:00.651Z,6.38
2022-10-07T05:01:28.446Z,6.46
2022-10-07T05:03:55.471Z,6.43
2022-10-07T05:06:22.294Z,6.49
2022-10-07T05:08:50.083Z,6.58
2022-10-07T05:11:16.994Z,6.57
2022-10-07T05:13:56.777Z,6.67
2022-10-07T05:16:24.950Z,6.75
2022-10-07T05:18:52.240Z,6.78
2022-10-07T05:21:19.554Z,6.88
2022-10-07T05:23:48.225Z,6.96
2022-10-07T05:26:21.797Z,7.03
2022-10-07T05:28:54.265Z,7.06
2022-10-07T05:31:28.352Z,7.14
2022-10-07T05:33:59.999Z,7.28
2022-10-07T05:36:27.409Z,7.35
2022-10-07T05:38:58.607Z,7.46
2022-10-07T05:41:36.093Z,7.52
2022-10-07T05:44:11.763Z,7.65
2022-10-07T05:46:40.416Z,7.75
2022-10-07T05:49:07.995Z,7.80
2022-10-07T05:51:36.026Z,7.95
2022-10-07T05:54:03.419Z,8.07
2022-10-07T05:56:38.107Z,8.21
2022-10-07T05:59:05.271Z,8.33
2022-10-07T06:01:32.611Z,8.48
2022-10-07T06:04:04.318Z,8.60
2022-10-07T06:06:35.539Z,8.77
2022-10-07T06:09:25.784Z,9.02
2022-10-07T06:12:12.107Z,9.29
2022-10-07T06:14:40.615Z,9.46
2022-10-07T06:17:08.306Z,9.63
2022-10-07T06:19:37.713Z,9.80
2022-10-07T06:22:04.776Z,9.93
2022-10-07T06:24:34.018Z,10.01
2022-10-07T06:27:02.819Z,10.15
2022-10-07T06:29:30.469Z,10.27
2022-10-07T06:31:57.714Z,10.40
2022-10-07T06:34:24.531Z,10.51
2022-10-07T06:36:51.384Z,10.64
2022-10-07T06:39:18.246Z,10.74
2022-10-07T06:41:47.585Z,10.88
2022-10-07T06:44:43.819Z,10.99
2022-10-07T06:47:14.956Z,11.13
2022-10-07T06:49:44.383Z,11.29
2022-10-07T06:52:12.447Z,11.40
2022-10-07T06:54:40.505Z,11.57
2022-10-07T06:57:20.726Z,11.68
2022-10-07T06:59:55.870Z,11.78
2022-10-07T07:02:25.736Z,11.89
2022-10-07T07:04:57.698Z,12.04
2022-10-07T07:07:26.056Z,12.21
2022-10-07T07:09:53.257Z,12.34
2022-10-07T07:12:22.857Z,12.45
2022-10-07T07:14:50.515Z,12.55
2022-10-07T07:17:20.189Z,12.68
2022-10-07T07:19:47.692Z,12.71
2022-10-07T07:22:14.599Z,12.76
2022-10-07T07:24:43.270Z,12.87
2022-10-07T07:27:10.176Z,12.99
2022-10-07T07:29:37.435Z,13.11
2022-10-07T07:32:04.623Z,13.15
2022-10-07T07:34:36.542Z,13.21
2022-10-07T07:37:04.404Z,13.32
2022-10-07T07:39:37.351Z,13.43
2022-10-07T07:42:09.133Z,13.50
2022-10-07T07:44:37.950Z,13.65
2022-10-07T07:47:09.075Z,13.73
2022-10-07T07:49:36.272Z,13.82
2022-10-07T07:52:04.484Z,13.92
2022-10-07T07:54:37.837Z,14.11
2022-10-07T07:57:04.756Z,14.28
2022-10-07T07:59:34.620Z,14.37
2022-10-07T08:02:02.772Z,14.42
2022-10-07T08:04:30.487Z,14.49
2022-10-07T08:06:57.607Z,14.72
2022-10-07T08:09:25.143Z,14.87
2022-10-07T08:11:52.933Z,15.11
2022-10-07T08:14:19.913Z,15.28
2022-10-07T08:16:50.453Z,15.50
2022-10-07T08:19:18.244Z,15.80
2022-10-07T08:21:45.768Z,16.00
2022-10-07T08:24:17.442Z,16.11
2022-10-07T08:26:47.623Z,16.23
2022-10-07T08:29:15.470Z,16.43
2022-10-07T08:31:42.811Z,16.56
2022-10-07T08:34:11.217Z,16.70
2022-10-07T08:36:38.687Z,16.94
2022-10-07T08:39:06.851Z,17.09
2022-10-07T08:41:58.068Z,17.38
2022-10-07T08:44:37.196Z,17.58
2022-10-07T08:47:24.802Z,17.79
2022-10-07T08:50:08.094Z,17.98
2022-10-07T08:52:45.131Z,18.04
2022-10-07T08:55:27.354Z,18.24
2022-10-07T08:58:09.044Z,18.31
2022-10-07T09:00:50.336Z,18.18
2022-10-07T09:03:47.365Z,18.20
2022-10-07T09:06:26.481Z,18.19
2022-10-07T09:09:02.440Z,18.18
2022-10-07T09:11:33.412Z,18.12
2022-10-07T09:14:19.133Z,18.18
2022-10-07T09:16:47.723Z,18.26
2022-10-07T09:19:27.346Z,18.51
2022-10-07T09:21:58.905Z,18.77
2022-10-07T09:24:31.517Z,18.85
2022-10-07T09:27:01.049Z,18.96
2022-10-07T09:29:30.147Z,18.94
2022-10-07T09:31:58.367Z,18.96
2022-10-07T09:34:30.074Z,18.84
2022-10-07T09:37:12.226Z,18.89
2022-10-07T09:39:40.187Z,19.09
2022-10-07T09:42:40.179Z,19.31
2022-10-07T09:45:21.647Z,19.59
2022-10-07T09:48:01.055Z,19.82
2022-10-07T09:50:41.161Z,19.97
2022-10-07T09:53:29.139Z,20.20
2022-10-07T09:55:56.536Z,20.11
2022-10-07T09:58:32.183Z,19.65
2022-10-07T10:01:02.047Z,19.57
2022-10-07T10:03:30.568Z,19.50
2022-10-07T10:05:58.732Z,19.50
2022-10-07T10:08:30.065Z,19.57
2022-10-07T10:11:19.962Z,19.69
2022-10-07T10:13:50.056Z,19.62
2022-10-07T10:16:34.808Z,19.65
2022-10-07T10:19:23.135Z,19.60
2022-10-07T10:21:56.368Z,19.41
2022-10-07T10:24:47.543Z,19.59
2022-10-07T10:27:23.212Z,19.81
2022-10-07T10:30:09.200Z,19.77
2022-10-07T10:33:19.626Z,19.94
2022-10-07T10:36:23.019Z,20.02
2022-10-07T10:39:24.426Z,20.41
2022-10-07T10:41:57.188Z,20.49
2022-10-07T10:44:34.079Z,20.30
2022-10-07T10:47:25.729Z,20.54
2022-10-07T10:50:02.975Z,20.57
2022-10-07T10:52:49.686Z,20.84
2022-10-07T10:55:44.489Z,20.76
2022-10-07T10:58:11.272Z,20.89
2022-10-07T11:00:51.025Z,20.76
2022-10-07T11:03:48.200Z,20.76
2022-10-07T11:06:18.194Z,20.68
2022-10-07T11:08:47.648Z,20.77
2022-10-07T11:11:20.001Z,20.83
2022-10-07T11:13:54.956Z,20.85
2022-10-07T11:16:28.036Z,21.24
2022-10-07T11:19:04.006Z,21.42
2022-10-07T11:21:38.325Z,21.21
2022-10-07T11:24:15.333Z,21.24
2022-10-07T11:26:46.962Z,21.44
2022-10-07T11:29:21.174Z,21.23
2022-10-07T11:31:56.394Z,21.25
2022-10-07T11:34:40.921Z,21.42
2022-10-07T11:37:19.713Z,21.62
2022-10-07T11:39:53.871Z,21.65
2022-10-07T11:42:26.629Z,21.39
2022-10-07T11:45:02.679Z,21.56
2022-10-07T11:47:46.632Z,21.27
2022-10-07T11:50:31.560Z,21.00
2022-10-07T11:53:07.198Z,20.98
2022-10-07T11:55:55.035Z,21.07
2022-10-07T11:58:36.186Z,21.27
2022-10-07T12:01:29.134Z,21.46
2022-10-07T12:04:01.714Z,21.45
2022-10-07T12:06:28.843Z,21.67
2022-10-07T12:08:55.716Z,21.71
2022-10-07T12:11:22.822Z,21.62
2022-10-07T12:13:52.276Z,21.77
2022-10-07T12:16:31.539Z,21.76
2022-10-07T12:19:07.599Z,21.65
2022-10-07T12:22:10.005Z,21.61
2022-10-07T12:24:37.959Z,21.64
2022-10-07T12:27:16.232Z,21.56
2022-10-07T12:30:02.769Z,21.73
2022-10-07T12:32:56.448Z,21.85
2022-10-07T12:35:34.767Z,21.57
2022-10-07T12:38:19.023Z,21.36
2022-10-07T12:41:02.464Z,21.19
2022-10-07T12:43:38.047Z,21.27
2022-10-07T12:46:15.322Z,21.33
2022-10-07T12:48:50.651Z,21.34
2022-10-07T12:51:25.272Z,21.46
2022-10-07T12:53:53.524Z,21.49
2022-10-07T12:56:28.062Z,21.64
2022-10-07T12:59:44.321Z,21.62
2022-10-07T13:02:34.944Z,21.55
2022-10-07T13:05:13.549Z,21.34
2022-10-07T13:08:10.524Z,21.42
2022-10-07T13:11:19.918Z,21.40
2022-10-07T13:14:02.639Z,21.43
2022-10-07T13:16:38.677Z,21.41
2022-10-07T13:19:20.478Z,21.43
2022-10-07T13:21:51.823Z,21.49
2022-10-07T13:24:24.944Z,21.65
2022-10-07T13:26:52.378Z,21.61
2022-10-07T13:29:25.951Z,21.83
2022-10-07T13:32:15.774Z,21.87
2022-10-07T13:34:45.577Z,22.17
2022-10-07T13:37:35.518Z,22.37
2022-10-07T13:40:34.172Z,21.89
2022-10-07T13:43:04.676Z,21.92
2022-10-07T13:45:33.413Z,22.35
2022-10-07T13:48:00.508Z,22.35
2022-10-07T13:50:30.790Z,21.84
2022-10-07T13:52:58.614Z,21.85
2022-10-07T13:55:30.369Z,21.93
2022-10-07T13:58:00.840Z,21.61
2022-10-07T14:00:33.419Z,21.47
2022-10-07T14:03:02.048Z,21.63
2022-10-07T14:05:32.407Z,22.07
2022-10-07T14:08:12.812Z,22.01
2022-10-07T14:10:56.043Z,22.28
2022-10-07T14:13:23.183Z,22.22
2022-10-07T14:15:54.431Z,22.31
2022-10-07T14:18:22.027Z,22.44
2022-10-07T14:20:55.057Z,22.53
2022-10-07T14:23:30.674Z,22.42
2022-10-07T14:28:47.889Z,20.70
2022-10-07T14:31:38.548Z,20.27
2022-10-07T14:34:38.874Z,19.85
2022-10-07T14:37:29.589Z,19.44
2022-10-07T14:39:59.876Z,19.00
2022-10-07T14:42:32.412Z,18.81
2022-10-07T14:45:02.912Z,18.85
2022-10-07T14:47:37.022Z,19.07
2022-10-07T14:50:04.148Z,19.25
2022-10-07T14:52:35.481Z,19.31
2022-10-07T14:55:05.654Z,19.33
2022-10-07T14:57:32.479Z,19.21
2022-10-07T14:59:59.287Z,19.07
2022-10-07T15:02:26.637Z,18.91
2022-10-07T15:04:53.621Z,18.94
2022-10-07T15:07:21.557Z,19.31
2022-10-07T15:09:48.566Z,18.94
2022-10-07T15:12:17.255Z,18.71
2022-10-07T15:14:44.121Z,18.46
2022-10-07T15:17:14.388Z,18.31
2022-10-07T15:19:41.433Z,18.11
2022-10-07T15:22:08.361Z,17.81
2022-10-07T15:24:35.184Z,17.69
2022-10-07T15:27:02.632Z,17.51
2022-10-07T15:29:29.407Z,17.41
2022-10-07T15:31:56.238Z,17.30
2022-10-07T15:34:23.499Z,17.22
2022-10-07T15:36:50.548Z,17.09
2022-10-07T15:39:17.410Z,17.01
2022-10-07T15:41:44.435Z,16.93
2022-10-07T15:44:18.563Z,16.88
2022-10-07T15:46:47.721Z,16.80
2022-10-07T15:49:17.389Z,16.76
2022-10-07T15:51:46.871Z,16.65
2022-10-07T15:54:14.117Z,16.57
2022-10-07T15:56:42.285Z,16.50
2022-10-07T15:59:09.719Z,16.40
2022-10-07T16:01:36.937Z,16.18
2022-10-07T16:04:05.534Z,16.12
2022-10-07T16:06:35.412Z,16.06
2022-10-07T16:09:03.446Z,16.01
2022-10-07T16:11:33.200Z,15.96
2022-10-07T16:14:03.266Z,15.89
2022-10-07T16:16:33.955Z,15.79
2022-10-07T16:19:01.274Z,15.80
2022-10-07T16:21:31.485Z,15.76
2022-10-07T16:24:02.089Z,15.66
2022-10-07T16:26:30.403Z,15.60
2022-10-07T16:29:18.261Z,15.59
2022-10-07T16:31:46.720Z,15.55
2022-10-07T16:34:15.934Z,15.53
2022-10-07T16:36:46.091Z,15.51
2022-10-07T16:39:13.575Z,15.45
2022-10-07T16:41:44.411Z,15.38
2022-10-07T16:44:11.576Z,15.31
2022-10-07T16:46:38.930Z,15.26
2022-10-07T16:49:08.607Z,15.16
2022-10-07T16:51:36.833Z,15.09
2022-10-07T16:54:06.765Z,15.03
2022-10-07T16:56:36.195Z,14.97
2022-10-07T16:59:05.945Z,14.86
2022-10-07T17:01:33.710Z,14.80
2022-10-07T17:04:01.499Z,14.73
2022-10-07T17:06:30.704Z,14.70
2022-10-07T17:09:04.548Z,14.67
2022-10-07T17:11:47.528Z,14.58
2022-10-07T17:14:17.771Z,14.59
2022-10-07T17:16:47.022Z,14.52
2022-10-07T17:19:15.465Z,14.49
2022-10-07T17:21:42.490Z,14.38
2022-10-07T17:24:10.243Z,14.31
2022-10-07T17:26:38.136Z,14.20
2022-10-07T17:29:08.320Z,14.08
2022-10-07T17:31:37.122Z,13.96
2022-10-07T17:34:04.571Z,13.93
2022-10-07T17:36:32.836Z,13.82
2022-10-07T17:39:00.308Z,13.75
2022-10-07T17:41:29.961Z,13.70
2022-10-07T17:43:59.345Z,13.61
2022-10-07T17:46:28.771Z,13.52
2022-10-07T17:48:57.871Z,13.40
2022-10-07T17:51:28.289Z,13.30
2022-10-07T17:53:56.489Z,13.16
2022-10-07T17:56:23.822Z,13.12
2022-10-07T17:58:50.730Z,13.02
2022-10-07T18:01:22.793Z,12.93
2022-10-07T18:03:56.410Z,12.84
2022-10-07T18:06:24.855Z,12.69
2022-10-07T18:08:52.086Z,12.57
2022-10-07T18:11:19.103Z,12.48
2022-10-07T18:14:04.455Z,12.45
2022-10-07T18:16:33.146Z,12.38
2022-10-07T18:19:00.430Z,12.33
2022-10-07T18:21:31.232Z,12.19
2022-10-07T18:23:58.979Z,12.22
2022-10-07T18:26:25.910Z,12.09
2022-10-07T18:28:52.807Z,12.00
2022-10-07T18:31:20.228Z,11.99
2022-10-07T18:33:47.564Z,11.97
2022-10-07T18:36:17.808Z,11.92
2022-10-07T18:38:45.310Z,11.91
2022-10-07T18:41:14.771Z,11.85
2022-10-07T18:43:43.587Z,11.82
2022-10-07T18:46:13.623Z,11.75
2022-10-07T18:48:42.227Z,11.72
2022-10-07T18:51:11.558Z,11.65
2022-10-07T18:53:41.923Z,11.62
2022-10-07T18:56:12.475Z,11.61
2022-10-07T18:58:42.322Z,11.48
2022-10-07T19:01:17.996Z,11.37
2022-10-07T19:03:45.656Z,11.18
2022-10-07T19:06:20.978Z,11.42
2022-10-07T19:08:48.126Z,11.41
2022-10-07T19:11:18.206Z,11.42
2022-10-07T19:13:48.423Z,11.37
2022-10-07T19:16:26.555Z,11.38
2022-10-07T19:18:56.022Z,11.34
2022-10-07T19:21:23.866Z,11.37
2022-10-07T19:23:54.771Z,11.31
2022-10-07T19:26:26.618Z,11.33
2022-10-07T19:28:54.852Z,11.27
2022-10-07T19:31:29.300Z,11.25
2022-10-07T19:34:04.277Z,11.22
2022-10-07T19:36:34.706Z,11.15
2022-10-07T19:39:02.749Z,11.15
2022-10-07T19:41:33.124Z,11.10
2022-10-07T19:44:01.098Z,11.08
2022-10-07T19:46:31.015Z,10.99
2022-10-07T19:49:00.291Z,11.01
2022-10-07T19:51:30.414Z,10.92
2022-10-07T19:53:59.128Z,10.85
2022-10-07T19:56:35.780Z,10.79
2022-10-07T19:59:07.982Z,10.74
2022-10-07T20:01:41.830Z,10.66
2022-10-07T20:04:15.970Z,10.68
2022-10-07T20:06:43.904Z,10.62
2022-10-07T20:09:13.599Z,10.52
2022-10-07T20:11:40.553Z,10.53
2022-10-07T20:14:07.814Z,10.45
2022-10-07T20:16:35.094Z,10.51
2022-10-07T20:19:09.494Z,10.47
2022-10-07T20:21:38.126Z,10.44
2022-10-07T20:24:06.866Z,10.44
2022-10-07T20:26:36.483Z,10.38
2022-10-07T20:29:05.931Z,10.32
2022-10-07T20:31:35.450Z,10.27
2022-10-07T20:34:03.730Z,10.28
2022-10-07T20:36:33.892Z,10.29
2022-10-07T20:39:20.359Z,10.28
2022-10-07T20:42:09.716Z,10.26
2022-10-07T20:44:37.087Z,10.24
2022-10-07T20:47:06.451Z,10.29
2022-10-07T20:49:34.041Z,10.26
2022-10-07T20:52:03.317Z,10.18
2022-10-07T20:54:30.884Z,10.20
2022-10-07T20:56:58.812Z,10.10
2022-10-07T20:59:30.582Z,10.00
2022-10-07T21:01:58.321Z,10.02
2022-10-07T21:04:27.368Z,10.06
2022-10-07T21:06:58.130Z,10.07
2022-10-07T21:09:26.219Z,10.11
2022-10-07T21:11:54.860Z,10.01
2022-10-07T21:14:22.715Z,10.02
2022-10-07T21:16:49.903Z,10.02
2022-10-07T21:19:18.370Z,10.03
2022-10-07T21:21:45.152Z,10.00
2022-10-07T21:24:12.094Z,9.97
2022-10-07T21:26:39.024Z,9.90
2022-10-07T21:29:08.365Z,9.86
2022-10-07T21:31:37.023Z,9.81
2022-10-07T21:34:07.949Z,9.84
2022-10-07T21:36:37.851Z,9.75
2022-10-07T21:39:05.928Z,9.76
2022-10-07T21:41:34.699Z,9.75
2022-10-07T21:44:04.148Z,9.76
2022-10-07T21:46:33.776Z,9.73
2022-10-07T21:49:00.911Z,9.76
2022-10-07T21:51:29.740Z,9.67
2022-10-07T21:54:02.465Z,9.66
2022-10-07T21:56:32.708Z,9.50
2022-10-07T21:59:05.747Z,9.48
2022-10-07T22:01:32.968Z,9.46
2022-10-07T22:04:02.285Z,9.51
2022-10-07T22:06:48.476Z,9.49
2022-10-07T22:09:18.521Z,9.47
2022-10-07T22:11:45.549Z,9.48
2022-10-07T22:14:13.215Z,9.50
2022-10-07T22:16:40.610Z,9.49
2022-10-07T22:19:08.111Z,9.49
2022-10-07T22:21:39.339Z,9.46
2022-10-07T22:24:11.048Z,9.50
2022-10-07T22:26:40.903Z,9.45
2022-10-07T22:29:13.235Z,9.44
2022-10-07T22:31:40.140Z,9.44
2022-10-07T22:34:07.529Z,9.46
2022-10-07T22:36:35.472Z,9.37
2022-10-07T22:39:02.398Z,9.34
2022-10-07T22:41:29.650Z,9.27
2022-10-07T22:43:56.771Z,9.22
2022-10-07T22:46:26.894Z,9.19
2022-10-07T22:48:58.428Z,9.21
2022-10-07T22:51:28.693Z,9.18
2022-10-07T22:53:56.863Z,9.15
2022-10-07T22:56:27.701Z,9.08
2022-10-07T22:59:03.054Z,9.03
2022-10-07T23:01:31.650Z,9.01
2022-10-07T23:04:01.027Z,9.01
2022-10-07T23:06:28.087Z,9.01
2022-10-07T23:08:56.222Z,8.93
2022-10-07T23:11:25.086Z,8.85
2022-10-07T23:13:52.615Z,8.78
2022-10-07T23:16:22.280Z,8.82
2022-10-07T23:18:52.793Z,8.79
2022-10-07T23:21:25.716Z,8.74
2022-10-07T23:24:01.846Z,8.61
2022-10-07T23:26:31.848Z,8.71
2022-10-07T23:29:00.385Z,8.74
2022-10-07T23:31:29.372Z,8.76
2022-10-07T23:33:57.326Z,8.70
2022-10-07T23:36:25.557Z,8.73
2022-10-07T23:38:53.132Z,8.67
2022-10-07T23:41:22.655Z,8.60
2022-10-07T23:43:50.720Z,8.55
2022-10-07T23:46:19.470Z,8.57
2022-10-07T23:48:47.208Z,8.51
2022-10-07T23:51:17.111Z,8.46
2022-10-07T23:53:44.730Z,8.41
2022-10-07T23:56:11.969Z,8.39
2022-10-07T23:58:39.280Z,8.38
